Terminal Aerodrome Forecast
Issued by NWS

Home | Current Version | Previous Version | Graphics & Text | Print | Product List | Glossary On
Versions: 1 2 3 4 5 6 7 8 9 10 11 12
393
FTUS43 KTOP 211720
TAFFOE
TAF
KFOE 211720Z 2118/2218 16016G25KT P6SM SCT025
     FM220300 17011KT P6SM FEW250 WS010/20040KT
     FM221300 17012G19KT P6SM SCT025 SCT250=

USA.gov is the U.S. government's official web portal to all federal, state and local government web resources and services.